LFGJ/DLE METAR and TAF weather

Enter ICAO airport designator
Station Type Date Time Source
LFGJ METAR 2024/04/18 08:30 UTC NOAA

LFGJ 180830Z AUTO 01008KT 320V040 9999 BKN016 BKN022 BKN027 06/03 Q1018 TEMPO FEW025CB


Station Type Date Time Source
LFGJ Decoded METAR 2024/04/18 08:30 UTC NOAA

Dole Tavaux, France (LFGJ) 47-02-34N 005-26-06E
Apr 18, 2024 - 04:30 AM EDT / 2024.04.18 0830 UTC
Wind: from the N (010 degrees) at 9 MPH (8 KT) (direction variable):0
Visibility: greater than 7 mile(s):0
Sky conditions: mostly cloudy
Weather: Cumulonimbus clouds observed
Temperature: 42 F (6 C)
Dew Point: 37 F (3 C)
Relative Humidity: 81%
Pressure (altimeter): 30.06 in. Hg (1018 hPa)
ob: LFGJ 180830Z AUTO 01008KT 320V040 9999 BKN016 BKN022 BKN027 06/03 Q1018 TEMPO FEW025CB
cycle: 8

Station Type Date Time Source
LFGJ TAF 2020/06/22 09:21 UTC NOAA